Time;durP1;ratioP1;P1;durP2;ratioP2;P2;SDS_P1;SDS_P2;PMS_P1;PMS_P2;Temp;Humidity;BMP_temperature;BMP_pressure;BME280_temperature;BME280_humidity;BME280_pressure;Samples;Min_cycle;Max_cycle;Signal;HPM_P1;HPM_P2
2022/10/28 00:00:19;;;;;;;14.10;3.90;;;;;;;20.61;100.00;101842.16;4616890;31;20880;-90
2022/10/28 00:02:47;;;;;;;9.27;3.20;;;;;;;20.56;100.00;101834.53;4618349;31;20482;-91
2022/10/28 00:05:15;;;;;;;13.40;3.10;;;;;;;20.59;100.00;101844.34;4618176;31;20473;-90
2022/10/28 00:07:43;;;;;;;8.50;3.20;;;;;;;20.55;100.00;101849.50;4618001;31;20478;-90
2022/10/28 00:10:10;;;;;;;8.37;2.50;;;;;;;20.51;100.00;101834.38;4634531;30;20466;-90
2022/10/28 00:12:38;;;;;;;7.73;3.33;;;;;;;20.46;100.00;101825.91;4679614;30;20958;-90
2022/10/28 00:15:06;;;;;;;10.03;2.70;;;;;;;20.44;100.00;101819.72;4665292;30;20477;-91
2022/10/28 00:17:33;;;;;;;12.00;3.10;;;;;;;20.36;100.00;101817.25;4665537;30;20990;-90
2022/10/28 00:20:01;;;;;;;7.00;3.23;;;;;;;20.38;100.00;101829.00;4665660;30;20558;-90
2022/10/28 00:22:28;;;;;;;10.10;2.90;;;;;;;20.34;100.00;101816.63;4699980;30;20461;-91
2022/10/28 00:24:56;;;;;;;10.43;3.03;;;;;;;20.33;100.00;101803.81;4751772;30;20524;-90
2022/10/28 00:27:23;;;;;;;10.73;3.63;;;;;;;20.36;100.00;101808.91;4800050;29;20560;-91
2022/10/28 00:29:51;;;;;;;11.53;3.03;;;;;;;20.36;100.00;101814.47;4828017;29;20461;-90
2022/10/28 00:32:19;;;;;;;6.27;2.30;;;;;;;20.32;100.00;101805.75;4828077;29;20559;-90
2022/10/28 00:34:47;;;;;;;9.57;3.03;;;;;;;20.38;100.00;101812.34;4827856;29;20453;-90
2022/10/28 00:37:15;;;;;;;7.37;2.40;;;;;;;20.37;100.00;101815.34;4827454;29;20461;-90
2022/10/28 00:39:44;;;;;;;13.90;3.30;;;;;;;20.40;100.00;101815.72;4842391;29;20469;-91
2022/10/28 00:42:12;;;;;;;5.77;3.13;;;;;;;20.38;100.00;101801.22;4842560;29;20489;-91
2022/10/28 00:44:47;;;;;;;9.90;3.90;;;;;;;20.35;100.00;101810.00;4842298;29;20505;-90
2022/10/28 00:47:27;;;;;;;6.93;3.40;;;;;;;20.42;100.00;101818.25;4842775;29;20445;-90
2022/10/28 00:50:15;;;;;;;15.57;4.47;;;;;;;20.41;100.00;101820.19;4842438;29;20560;-90
2022/10/28 00:52:43;;;;;;;9.37;4.50;;;;;;;20.40;100.00;101817.66;4842377;29;20488;-90
2022/10/28 00:55:13;;;;;;;8.07;5.00;;;;;;;20.40;100.00;101826.81;4827688;29;20480;-89
2022/10/28 00:57:40;;;;;;;10.07;5.20;;;;;;;20.39;100.00;101814.03;4841988;29;20453;-90
2022/10/28 01:00:08;;;;;;;10.70;5.30;;;;;;;20.41;100.00;101814.63;4797455;29;20525;-90
2022/10/28 01:02:47;;;;;;;13.23;4.60;;;;;;;20.40;100.00;101817.66;4812292;29;20465;-90
2022/10/28 01:05:18;;;;;;;10.87;4.83;;;;;;;20.39;100.00;101808.47;4812368;29;21016;-90
2022/10/28 01:07:47;;;;;;;11.10;4.47;;;;;;;20.38;100.00;101805.94;4812413;29;20531;-90
2022/10/28 01:10:15;;;;;;;9.97;4.40;;;;;;;20.42;100.00;101810.78;4812643;29;20445;-90
2022/10/28 01:13:05;;;;;;;12.27;5.07;;;;;;;20.42;100.00;101813.53;4812558;29;20477;-90
2022/10/28 01:16:03;;;;;;;8.30;5.00;;;;;;;20.44;100.00;101814.16;4842280;29;20991;-89
2022/10/28 01:18:39;;;;;;;11.30;4.90;;;;;;;20.43;100.00;101808.84;4827675;29;20527;-90
2022/10/28 01:21:25;;;;;;;11.63;5.17;;;;;;;20.46;100.00;101820.34;4812625;29;21042;-90
2022/10/28 01:24:16;;;;;;;15.33;4.90;;;;;;;20.47;100.00;101823.97;4823237;29;20450;-90
2022/10/28 01:27:21;;;;;;;11.10;4.40;;;;;;;20.48;100.00;101828.44;4824110;29;20450;-90
2022/10/28 01:29:58;;;;;;;14.37;5.20;;;;;;;20.47;100.00;101816.47;4824062;29;20526;-89
2022/10/28 01:32:44;;;;;;;10.20;4.77;;;;;;;20.51;100.00;101814.94;4824212;29;20444;-91
2022/10/28 01:35:43;;;;;;;14.57;4.97;;;;;;;20.46;100.00;101809.22;4823764;29;20526;-90
2022/10/28 01:38:14;;;;;;;17.20;5.90;;;;;;;20.50;100.00;101810.47;4768781;30;21018;-90
2022/10/28 01:40:59;;;;;;;14.53;6.30;;;;;;;20.52;100.00;101799.97;4768890;30;20833;-90
2022/10/28 01:43:28;;;;;;;13.77;5.10;;;;;;;20.49;100.00;101797.66;4754125;30;20464;-90
2022/10/28 01:46:06;;;;;;;18.13;6.20;;;;;;;20.53;100.00;101800.81;4768774;30;20472;-90
2022/10/28 01:48:50;;;;;;;7.70;4.20;;;;;;;20.51;100.00;101795.50;4754278;30;20567;-90
2022/10/28 01:51:49;;;;;;;8.67;4.60;;;;;;;20.52;100.00;101802.75;4754199;30;20459;-90
2022/10/28 01:54:20;;;;;;;10.43;3.63;;;;;;;20.49;100.00;101789.31;4757316;30;20545;-90
2022/10/28 01:56:48;;;;;;;9.30;4.07;;;;;;;20.48;100.00;101784.84;4771864;30;20888;-90
2022/10/28 01:59:20;;;;;;;16.33;4.00;;;;;;;20.43;100.00;101781.91;4757686;30;20533;-91
2022/10/28 02:01:49;;;;;;;10.37;4.73;;;;;;;20.45;100.00;101779.75;4771880;30;20536;-90
2022/10/28 02:04:18;;;;;;;12.43;4.27;;;;;;;20.45;100.00;101776.13;4786420;29;20490;-90
2022/10/28 02:06:47;;;;;;;6.70;3.60;;;;;;;20.44;100.00;101772.50;4771496;30;20451;-90
2022/10/28 02:09:33;;;;;;;13.00;4.47;;;;;;;20.43;100.00;101773.59;4771920;30;20470;-90
2022/10/28 02:12:29;;;;;;;10.30;3.57;;;;;;;20.45;100.00;101773.34;4773704;30;20466;-90
2022/10/28 02:15:30;;;;;;;11.97;4.20;;;;;;;20.44;100.00;101769.72;4786332;30;20463;-90
2022/10/28 02:18:09;;;;;;;13.70;4.20;;;;;;;20.43;100.00;101767.19;4786143;29;20493;-90
2022/10/28 02:21:09;;;;;;;10.13;4.60;;;;;;;20.39;100.00;101764.06;4786240;29;21020;-91
2022/10/28 02:23:48;;;;;;;16.30;4.43;;;;;;;20.38;100.00;101756.81;4772817;30;20820;-90
2022/10/28 02:26:39;;;;;;;9.50;4.20;;;;;;;20.40;100.00;101760.16;4789793;29;20475;-90
2022/10/28 02:29:32;;;;;;;9.30;4.00;;;;;;;20.43;100.00;101754.16;4775056;30;20458;-90
2022/10/28 02:32:04;;;;;;;10.70;4.17;;;;;;;20.40;100.00;101737.94;4819242;29;20441;-90
2022/10/28 02:34:38;;;;;;;16.00;4.63;;;;;;;20.41;100.00;101736.88;4844845;29;20448;-90
2022/10/28 02:37:10;;;;;;;11.50;3.57;;;;;;;20.44;100.00;101741.97;4844951;29;20522;-90
2022/10/28 02:39:54;;;;;;;11.20;4.70;;;;;;;20.42;100.00;101735.78;4844885;29;20449;-90
2022/10/28 02:42:24;;;;;;;9.73;3.83;;;;;;;20.42;100.00;101734.94;4844330;29;20500;-91
2022/10/28 02:44:59;;;;;;;13.00;3.90;;;;;;;20.45;100.00;101746.44;4844364;29;20473;-90
2022/10/28 02:47:30;;;;;;;6.00;3.17;;;;;;;20.44;100.00;101728.06;4844526;29;20456;-90
2022/10/28 02:50:00;;;;;;;10.10;3.20;;;;;;;20.44;100.00;101732.78;4844356;29;20462;-90
2022/10/28 02:52:28;;;;;;;18.53;3.37;;;;;;;20.44;100.00;101728.06;4829177;29;20501;-90
2022/10/28 02:54:57;;;;;;;8.33;3.10;;;;;;;20.45;100.00;101720.59;4844579;29;20495;-91
2022/10/28 02:57:26;;;;;;;12.67;3.60;;;;;;;20.46;100.00;101722.28;4827532;29;20465;-90
2022/10/28 02:59:58;;;;;;;11.60;3.77;;;;;;;20.46;100.00;101709.25;4826036;29;20457;-90
2022/10/28 03:02:26;;;;;;;9.37;2.37;;;;;;;20.46;100.00;101720.34;4825504;29;20497;-90
2022/10/28 03:04:54;;;;;;;9.60;2.73;;;;;;;20.48;100.00;101720.13;4825939;29;20950;-90
2022/10/28 03:07:23;;;;;;;11.90;3.20;;;;;;;20.49;100.00;101722.66;4811552;29;20454;-90
2022/10/28 03:09:51;;;;;;;7.33;2.67;;;;;;;20.46;100.00;101713.94;4825765;29;20454;-90
2022/10/28 03:12:19;;;;;;;10.40;2.17;;;;;;;20.50;100.00;101732.69;4825386;29;20522;-90
2022/10/28 03:14:46;;;;;;;6.33;2.40;;;;;;;20.47;100.00;101722.06;4825994;29;20533;-90
2022/10/28 03:17:16;;;;;;;13.27;2.40;;;;;;;20.50;100.00;101726.28;4825598;29;20466;-90
2022/10/28 03:19:43;;;;;;;7.90;2.10;;;;;;;20.50;100.00;101726.28;4810669;29;20481;-90
2022/10/28 03:22:12;;;;;;;10.90;2.50;;;;;;;20.49;100.00;101725.44;4825280;29;20497;-90
2022/10/28 03:24:40;;;;;;;6.70;1.87;;;;;;;20.51;100.00;101734.38;4810713;29;20464;-90
2022/10/28 03:27:07;;;;;;;6.90;2.47;;;;;;;20.50;100.00;101732.69;4825837;29;20456;-90
2022/10/28 03:29:35;;;;;;;6.60;2.37;;;;;;;20.52;100.00;101736.09;4810831;29;20873;-90
2022/10/28 03:32:07;;;;;;;6.60;2.03;;;;;;;20.48;100.00;101726.53;4825333;29;21050;-90
2022/10/28 03:34:35;;;;;;;7.07;2.00;;;;;;;20.48;100.00;101722.91;4825355;29;20450;-90
2022/10/28 03:37:08;;;;;;;9.73;2.03;;;;;;;20.50;100.00;101732.69;4825251;29;20477;-90
2022/10/28 03:39:36;;;;;;;15.00;2.30;;;;;;;20.48;100.00;101728.44;4825507;29;20465;-91
2022/10/28 03:42:03;;;;;;;10.67;2.90;;;;;;;20.48;100.00;101722.91;4825125;29;20580;-90
2022/10/28 03:44:34;;;;;;;5.43;2.33;;;;;;;20.46;100.00;101725.91;4825050;29;20457;-90
2022/10/28 03:47:02;;;;;;;8.47;2.50;;;;;;;20.49;100.00;101747.66;4825113;29;20458;-90
2022/10/28 03:49:29;;;;;;;7.13;1.77;;;;;;;20.49;100.00;101753.22;4825019;29;20462;-90
2022/10/28 03:51:57;;;;;;;7.00;2.00;;;;;;;20.48;100.00;101734.00;4825229;29;20564;-90
2022/10/28 03:54:25;;;;;;;7.53;1.90;;;;;;;20.48;100.00;101737.63;4825070;29;20450;-90
2022/10/28 03:56:52;;;;;;;8.83;2.47;;;;;;;20.48;100.00;101743.19;4824764;29;20843;-91
2022/10/28 03:59:20;;;;;;;7.43;2.10;;;;;;;20.48;100.00;101726.53;4825224;29;20461;-90
2022/10/28 04:01:48;;;;;;;4.90;2.60;;;;;;;20.45;100.00;101718.66;4825112;29;20504;-90
2022/10/28 04:04:15;;;;;;;7.00;2.80;;;;;;;20.48;100.00;101726.53;4825450;29;20462;-90
2022/10/28 04:06:43;;;;;;;4.20;2.30;;;;;;;20.45;100.00;101715.03;4825203;29;20552;-90
2022/10/28 04:09:10;;;;;;;8.23;3.33;;;;;;;20.50;100.00;101720.72;4810268;29;20461;-91
2022/10/28 04:11:38;;;;;;;6.50;3.50;;;;;;;20.48;100.00;101714.56;4825069;29;20461;-90
2022/10/28 04:14:05;;;;;;;7.10;4.70;;;;;;;20.46;100.00;101703.69;4824620;29;20457;-90
2022/10/28 04:16:33;;;;;;;8.33;3.87;;;;;;;20.45;100.00;101706.69;4824145;29;20441;-90
2022/10/28 04:19:00;;;;;;;7.97;4.53;;;;;;;20.45;100.00;101707.53;4825185;29;20468;-91
2022/10/28 04:21:28;;;;;;;12.80;4.90;;;;;;;20.42;100.00;101709.94;4825073;29;20485;-91
2022/10/28 04:23:56;;;;;;;8.17;4.07;;;;;;;20.45;100.00;101707.53;4824762;29;20980;-91
2022/10/28 04:26:25;;;;;;;11.60;4.33;;;;;;;20.46;100.00;101712.03;4824511;29;20493;-90
2022/10/28 04:28:53;;;;;;;7.80;4.37;;;;;;;20.44;100.00;101705.84;4825139;29;20463;-90
2022/10/28 04:31:20;;;;;;;8.90;4.73;;;;;;;20.42;100.00;101698.84;4824309;29;20961;-90
2022/10/28 04:33:49;;;;;;;9.00;4.80;;;;;;;20.44;100.00;101699.44;4824499;29;21032;-90
2022/10/28 04:36:18;;;;;;;14.10;5.97;;;;;;;20.38;100.00;101692.09;4824586;29;20454;-90
2022/10/28 04:39:05;;;;;;;13.13;5.80;;;;;;;20.41;100.00;101695.22;4824473;29;20554;-90
2022/10/28 04:41:34;;;;;;;11.00;5.27;;;;;;;20.39;100.00;101691.84;4809228;29;20488;-90
2022/10/28 04:44:01;;;;;;;13.73;5.60;;;;;;;20.41;100.00;101684.09;4824278;29;20470;-90
2022/10/28 04:46:29;;;;;;;9.10;5.30;;;;;;;20.40;100.00;101685.19;4823741;29;20541;-90
2022/10/28 04:49:01;;;;;;;12.67;6.50;;;;;;;20.41;100.00;101686.03;4824274;29;20561;-90
2022/10/28 04:51:28;;;;;;;11.83;6.27;;;;;;;20.39;100.00;101682.66;4824589;29;20565;-90
2022/10/28 04:53:59;;;;;;;14.17;5.50;;;;;;;20.38;100.00;101684.59;4824495;29;20458;-91
2022/10/28 04:56:27;;;;;;;12.73;6.10;;;;;;;20.38;100.00;101679.03;4823903;29;20588;-90
2022/10/28 04:58:54;;;;;;;14.30;6.07;;;;;;;20.34;100.00;101678.63;4824430;29;20549;-90
2022/10/28 05:01:22;;;;;;;11.27;5.67;;;;;;;20.33;100.00;101670.53;4824302;29;20490;-90
2022/10/28 05:07:45;;;;;;;14.00;5.90;;;;;;;20.18;100.00;101645.13;4825162;29;20417;-90
2022/10/28 05:10:14;;;;;;;11.53;5.10;;;;;;;20.24;100.00;101667.22;4809476;29;20884;-91
2022/10/28 05:12:42;;;;;;;16.63;6.10;;;;;;;20.24;100.00;101677.47;4824286;29;20482;-90
2022/10/28 05:15:10;;;;;;;10.53;5.00;;;;;;;20.19;100.00;101671.81;4824237;29;20557;-90
2022/10/28 05:17:39;;;;;;;13.50;6.47;;;;;;;20.19;100.00;101674.59;4824307;29;20489;-90
2022/10/28 05:20:08;;;;;;;11.03;6.50;;;;;;;20.17;100.00;101671.19;4824020;29;20514;-90
2022/10/28 05:22:35;;;;;;;14.63;5.90;;;;;;;20.15;100.00;101674.22;4823705;29;20493;-90
2022/10/28 05:25:03;;;;;;;17.83;6.53;;;;;;;20.17;100.00;101676.75;4809028;29;20549;-90
2022/10/28 05:27:31;;;;;;;12.73;5.97;;;;;;;20.16;100.00;101681.47;4824003;29;20450;-90
2022/10/28 05:30:01;;;;;;;17.13;5.27;;;;;;;20.11;100.00;101677.69;4793848;29;20952;-90
2022/10/28 05:32:28;;;;;;;12.63;5.90;;;;;;;20.14;100.00;101677.22;4824122;29;21019;-90
2022/10/28 05:39:03;;;;;;;12.70;6.20;;;;;;;19.96;100.00;101662.28;4824884;29;20436;-90
2022/10/28 05:41:31;;;;;;;19.20;6.87;;;;;;;20.04;100.00;101671.34;4823430;29;20492;-90
2022/10/28 05:44:05;;;;;;;26.10;7.27;;;;;;;20.07;100.00;101682.84;4823713;29;20528;-90
2022/10/28 05:46:36;;;;;;;32.20;8.67;;;;;;;20.05;100.00;101682.22;4823369;29;21023;-90
2022/10/28 05:49:04;;;;;;;22.27;8.23;;;;;;;20.08;100.00;101680.91;4823742;29;20446;-89
2022/10/28 05:51:32;;;;;;;18.27;8.20;;;;;;;20.03;100.00;101681.59;4823686;29;20494;-90
2022/10/28 05:53:59;;;;;;;15.97;7.63;;;;;;;20.01;100.00;101687.38;4823570;29;20509;-90
2022/10/28 05:56:27;;;;;;;18.40;8.20;;;;;;;19.99;100.00;101680.41;4823397;29;20950;-90
2022/10/28 05:58:55;;;;;;;27.80;8.83;;;;;;;19.98;100.00;101687.03;4827152;29;20852;-90
2022/10/28 06:01:23;;;;;;;21.20;7.73;;;;;;;19.95;100.00;101699.44;4812559;29;20436;-88
2022/10/28 06:03:51;;;;;;;21.33;7.87;;;;;;;19.91;100.00;101692.66;4826851;29;20497;-90
2022/10/28 06:06:19;;;;;;;19.07;7.50;;;;;;;19.90;100.00;101698.44;4826953;29;20442;-90
2022/10/28 06:08:47;;;;;;;16.50;6.70;;;;;;;19.87;100.00;101702.53;4826769;29;20525;-90
2022/10/28 06:11:18;;;;;;;16.80;7.10;;;;;;;19.82;100.00;101705.13;4826685;29;21016;-90
2022/10/28 06:13:46;;;;;;;22.40;6.90;;;;;;;19.82;100.00;101713.47;4826543;29;20506;-90
2022/10/28 06:16:14;;;;;;;16.77;7.40;;;;;;;19.81;100.00;101717.34;4826605;29;20456;-90
2022/10/28 06:18:41;;;;;;;19.00;7.70;;;;;;;19.77;100.00;101710.56;4826575;29;20504;-90
2022/10/28 06:21:18;;;;;;;11.10;7.20;;;;;;;19.74;100.00;101705.47;4812908;29;20465;-90
2022/10/28 06:23:47;;;;;;;15.70;8.40;;;;;;;19.81;100.00;101719.28;4797293;29;20453;-90
2022/10/28 06:26:15;;;;;;;15.87;7.30;;;;;;;19.82;100.00;101721.78;4811451;29;20980;-90
2022/10/28 06:28:45;;;;;;;18.00;8.30;;;;;;;19.79;100.00;101713.94;4826534;29;20446;-90
2022/10/28 06:31:14;;;;;;;15.57;7.20;;;;;;;19.85;100.00;101724.09;4826657;29;20468;-89
2022/10/28 06:33:43;;;;;;;20.03;8.63;;;;;;;19.88;100.00;101717.25;4826341;29;20464;-90
2022/10/28 06:36:10;;;;;;;19.17;7.57;;;;;;;19.91;100.00;101719.56;4826664;29;20890;-90
2022/10/28 06:38:38;;;;;;;10.13;5.03;;;;;;;19.92;100.00;101713.78;4826559;29;20465;-90
2022/10/28 06:41:06;;;;;;;8.20;4.37;;;;;;;19.87;100.00;101702.53;4826601;29;20457;-91
2022/10/28 06:43:34;;;;;;;8.47;4.90;;;;;;;19.97;100.00;101722.25;4826559;29;20504;-90
2022/10/28 06:46:02;;;;;;;11.77;4.50;;;;;;;19.97;100.00;101713.09;4826221;29;20473;-91
2022/10/28 06:48:31;;;;;;;11.60;5.00;;;;;;;19.97;100.00;101719.50;4811341;29;20453;-90
2022/10/28 06:50:59;;;;;;;27.27;14.00;;;;;;;19.97;100.00;101722.25;4810842;29;20465;-90
2022/10/28 06:57:57;;;;;;;41.50;28.50;;;;;;;19.97;100.00;101733.38;4847113;29;20503;-91
2022/10/28 07:00:25;;;;;;;17.43;9.20;;;;;;;19.90;100.00;101721.47;4859618;29;20488;-91
2022/10/28 07:02:55;;;;;;;13.43;6.63;;;;;;;19.92;100.00;101724.03;4829048;29;20488;-91
2022/10/28 07:05:25;;;;;;;15.50;6.03;;;;;;;19.98;100.00;101740.63;4844624;29;20471;-92
2022/10/28 07:07:53;;;;;;;13.00;6.07;;;;;;;19.99;100.00;101742.31;4844589;29;20457;-92
2022/10/28 07:10:23;;;;;;;13.30;6.40;;;;;;;19.94;100.00;101732.97;4844345;29;20465;-91
2022/10/28 07:12:52;;;;;;;12.93;8.60;;;;;;;19.97;100.00;101730.59;4844442;29;20463;-92
2022/10/28 07:15:22;;;;;;;8.80;5.17;;;;;;;19.91;100.00;101717.63;4844426;29;20544;-91
2022/10/28 07:17:58;;;;;;;10.43;4.20;;;;;;;20.02;100.00;101741.81;4844410;29;20602;-91
2022/10/28 07:20:26;;;;;;;12.63;7.70;;;;;;;19.95;100.00;101718.88;4844334;29;20536;-92
2022/10/28 07:26:42;;;;;;;6.83;3.80;;;;;;;19.94;100.00;101733.81;4845457;29;20465;-91
2022/10/28 07:29:11;;;;;;;13.97;8.90;;;;;;;19.95;100.00;101729.13;4828892;29;20463;-92
2022/10/28 07:31:39;;;;;;;16.53;10.53;;;;;;;20.00;100.00;101738.47;4844000;29;20464;-92
2022/10/28 07:34:08;;;;;;;20.73;13.13;;;;;;;19.93;100.00;101725.72;4799006;29;20512;-91
2022/10/28 07:36:52;;;;;;;10.00;6.20;;;;;;;19.92;100.00;101735.97;4830846;29;20548;-91
2022/10/28 07:39:20;;;;;;;13.53;5.60;;;;;;;19.93;100.00;101734.91;4844327;29;20797;-93
2022/10/28 07:41:48;;;;;;;15.80;6.57;;;;;;;19.95;100.00;101741.06;4843650;29;20489;-91
2022/10/28 07:44:16;;;;;;;14.20;6.93;;;;;;;20.00;100.00;101755.09;4843873;29;20553;-91
2022/10/28 07:46:57;;;;;;;19.23;6.77;;;;;;;20.12;100.00;101765.44;4842798;29;20948;-92
2022/10/28 07:49:25;;;;;;;23.00;12.10;;;;;;;20.13;100.00;101748.53;4829116;29;20441;-91
2022/10/28 07:51:53;;;;;;;19.93;10.40;;;;;;;20.22;100.00;101757.38;4799147;29;20450;-91
2022/10/28 07:54:34;;;;;;;21.40;12.40;;;;;;;20.17;100.00;101755.31;4830263;29;20452;-91
2022/10/28 07:57:02;;;;;;;20.37;9.67;;;;;;;20.30;100.00;101770.97;4813905;29;20480;-91
2022/10/28 07:59:30;;;;;;;22.77;10.00;;;;;;;20.22;100.00;101762.94;4830788;29;20493;-91
2022/10/28 08:01:59;;;;;;;23.40;9.60;;;;;;;20.30;100.00;101774.59;4810888;29;20519;-91
2022/10/28 08:04:40;;;;;;;23.37;11.53;;;;;;;20.34;100.00;101789.72;4821466;29;20483;-91
2022/10/28 08:07:08;;;;;;;48.60;18.13;;;;;;;20.34;100.00;101788.84;4795800;29;20465;-90
2022/10/28 08:09:37;;;;;;;28.90;12.20;;;;;;;20.25;100.00;101773.56;4795939;29;20588;-90
2022/10/28 08:12:14;;;;;;;25.27;11.00;;;;;;;20.26;100.00;101781.69;4795458;29;20552;-91
2022/10/28 08:14:45;;;;;;;21.73;10.20;;;;;;;20.34;100.00;101799.97;4810345;29;20473;-90
2022/10/28 08:17:12;;;;;;;28.60;12.30;;;;;;;20.35;100.00;101796.94;4824990;29;20465;-91
2022/10/28 08:19:40;;;;;;;35.43;14.90;;;;;;;20.41;100.00;101800.75;4795363;29;20473;-91
2022/10/28 08:22:11;;;;;;;37.03;14.97;;;;;;;20.35;100.00;101796.09;4795307;29;20877;-91
2022/10/28 08:24:38;;;;;;;41.93;16.90;;;;;;;20.48;100.00;101820.97;4794573;29;20465;-91
2022/10/28 08:27:06;;;;;;;44.17;15.93;;;;;;;20.51;100.00;101823.28;4795540;29;20869;-91
2022/10/28 08:29:35;;;;;;;41.37;18.67;;;;;;;20.52;100.00;101824.97;4795284;29;20452;-90
2022/10/28 08:32:03;;;;;;;37.50;17.90;;;;;;;20.58;100.00;101828.75;4795392;29;20481;-90
2022/10/28 08:34:34;;;;;;;42.07;17.00;;;;;;;20.56;100.00;101831.75;4780871;29;20522;-91
2022/10/28 08:52:44;;;;;;;43.40;23.03;;;;;;;20.78;100.00;101856.28;4753268;29;20424;-93
2022/10/28 08:55:34;;;;;;;45.93;22.80;;;;;;;20.78;100.00;101848.78;4752104;30;20548;-90
2022/10/28 08:58:23;;;;;;;55.13;24.93;;;;;;;20.74;100.00;101849.47;4737934;30;20801;-89
2022/10/28 09:00:53;;;;;;;77.03;40.33;;;;;;;20.77;100.00;101847.09;4755242;30;20555;-93
2022/10/28 09:03:39;;;;;;;57.40;32.77;;;;;;;20.77;100.00;101841.53;4757167;30;20506;-91
2022/10/28 09:06:13;;;;;;;63.63;37.67;;;;;;;20.88;100.00;101853.78;4755941;30;20467;-93
2022/10/28 09:13:20;;;;;;;57.03;30.03;;;;;;;21.09;100.00;101860.75;4770009;30;20400;-94
2022/10/28 09:15:56;;;;;;;40.37;27.57;;;;;;;21.16;100.00;101859.56;4769983;30;20448;-92
2022/10/28 09:19:02;;;;;;;78.90;44.57;;;;;;;21.21;100.00;101851.38;4842785;29;20452;-93
2022/10/28 09:21:47;;;;;;;121.97;66.93;;;;;;;21.28;100.00;101845.72;4842327;29;20460;-92
2022/10/28 09:32:23;;;;;;;109.57;47.63;;;;;;;21.47;100.00;101835.38;4842785;29;20424;-84
2022/10/28 09:35:06;;;;;;;66.13;30.93;;;;;;;21.57;100.00;101838.38;4829808;29;20491;-85
2022/10/28 09:37:45;;;;;;;96.87;38.23;;;;;;;21.67;100.00;101850.63;4826215;29;20453;-83
2022/10/28 09:40:20;;;;;;;49.73;25.07;;;;;;;21.74;100.00;101842.19;4835820;29;20452;-84
2022/10/28 09:43:25;;;;;;;56.30;25.40;;;;;;;21.84;100.00;101850.75;4825939;29;20508;-84
2022/10/28 09:45:54;;;;;;;41.80;19.30;;;;;;;21.88;100.00;101851.97;4803761;29;20489;-85
2022/10/28 09:48:28;;;;;;;49.03;19.67;;;;;;;21.90;100.00;101849.81;4789124;29;21041;-84
2022/10/28 09:50:56;;;;;;;52.80;21.67;;;;;;;21.93;100.00;101835.41;4803639;29;20490;-84
2022/10/28 09:53:38;;;;;;;49.40;22.10;;;;;;;22.09;100.00;101830.22;4789004;29;20481;-84
2022/10/28 09:56:06;;;;;;;48.57;20.10;;;;;;;22.19;100.00;101831.28;4803949;29;20849;-83
2022/10/28 09:58:35;;;;;;;68.17;28.03;;;;;;;22.22;100.00;101813.22;4798622;29;20468;-83
2022/10/28 10:01:03;;;;;;;67.87;27.27;;;;;;;22.25;100.00;101812.75;4771171;30;20579;-82
2022/10/28 10:03:31;;;;;;;50.73;18.50;;;;;;;22.34;100.00;101822.41;4770979;29;20495;-85
2022/10/28 10:06:06;;;;;;;42.70;18.63;;;;;;;22.29;100.00;101819.53;4770639;30;20456;-84
2022/10/28 10:08:35;;;;;;;52.17;16.57;;;;;;;22.24;100.00;101816.63;4771165;30;20447;-82
2022/10/28 10:11:06;;;;;;;41.57;14.43;;;;;;;22.21;100.00;101808.75;4771149;30;20951;-82
2022/10/28 10:13:36;;;;;;;32.03;13.57;;;;;;;22.26;100.00;101803.31;4771018;29;20463;-87
2022/10/28 10:16:12;;;;;;;48.53;14.07;;;;;;;22.37;100.00;101819.97;4771382;30;20530;-90
2022/10/28 10:18:47;;;;;;;46.80;13.80;;;;;;;22.38;100.00;101804.94;4786230;29;20914;-90
2022/10/28 10:21:18;;;;;;;38.50;11.87;;;;;;;22.49;100.00;101808.81;4809160;29;20466;-90
2022/10/28 10:23:46;;;;;;;35.97;13.03;;;;;;;22.55;100.00;101807.81;4808899;29;20485;-94
2022/10/28 10:26:15;;;;;;;38.23;12.97;;;;;;;22.60;100.00;101805.13;4793962;29;20513;-87
2022/10/28 10:28:49;;;;;;;30.43;11.40;;;;;;;22.68;100.00;101813.13;4792650;29;20474;-86
2022/10/28 10:35:01;;;;;;;32.23;11.20;;;;;;;22.93;100.00;101786.81;4823807;29;20396;-86
2022/10/28 10:37:32;;;;;;;28.63;10.53;;;;;;;23.08;100.00;101801.06;4807765;29;20507;-87
2022/10/28 10:40:20;;;;;;;32.70;10.50;;;;;;;23.29;100.00;101807.84;4807695;29;20450;-86
2022/10/28 10:42:48;;;;;;;31.10;9.77;;;;;;;23.30;100.00;101799.22;4822554;29;20503;-87
2022/10/28 10:49:23;;;;;;;32.67;10.10;;;;;;;23.54;100.00;101804.66;4826783;29;20531;-87
2022/10/28 10:51:52;;;;;;;30.23;10.20;;;;;;;23.75;100.00;101801.09;4795790;29;20486;-87
2022/10/28 10:54:20;;;;;;;36.87;9.97;;;;;;;23.84;100.00;101805.16;4810876;29;20993;-87
2022/10/28 10:56:47;;;;;;;38.43;10.40;;;;;;;23.93;100.00;101809.19;4825020;29;20860;-88
2022/10/28 10:59:19;;;;;;;34.80;10.80;;;;;;;23.94;100.00;101799.72;4802089;29;20485;-87
2022/10/28 11:01:49;;;;;;;34.10;10.00;;;;;;;24.01;100.00;101802.34;4826077;29;20493;-87
2022/10/28 11:04:18;;;;;;;55.43;10.47;;;;;;;23.87;100.00;101799.03;4813794;29;20520;-87
2022/10/28 11:06:52;;;;;;;64.90;11.60;;;;;;;24.00;100.00;101804.28;4813786;29;20456;-88
2022/10/28 11:09:21;;;;;;;31.87;9.60;;;;;;;24.19;100.00;101801.19;4828612;29;20457;-87
2022/10/28 11:11:52;;;;;;;30.07;10.10;;;;;;;24.28;100.00;101796.84;4843152;29;20464;-88
2022/10/28 11:14:24;;;;;;;31.70;10.63;;;;;;;24.19;100.00;101787.22;4843312;29;20457;-87
2022/10/28 11:17:00;;;;;;;32.37;10.60;;;;;;;24.18;100.00;101782.72;4813937;29;20449;-87
2022/10/28 11:19:31;;;;;;;29.70;9.40;;;;;;;24.22;100.00;101781.09;4829531;29;20875;-86
2022/10/28 11:22:22;;;;;;;24.97;9.27;;;;;;;24.40;100.00;101769.63;4843553;29;20463;-85
2022/10/28 11:28:56;;;;;;;31.60;10.07;;;;;;;24.70;100.00;101764.38;4844843;29;20420;-86
2022/10/28 11:31:34;;;;;;;25.47;9.60;;;;;;;24.88;100.00;101759.53;4843166;29;20536;-86
2022/10/28 11:34:01;;;;;;;29.33;10.13;;;;;;;25.01;99.76;101760.00;4843023;29;20490;-85
2022/10/28 11:36:47;;;;;;;33.30;10.27;;;;;;;25.20;99.45;101760.44;4842452;29;20456;-86
2022/10/28 11:39:37;;;;;;;30.57;9.63;;;;;;;25.50;98.71;101761.78;4844269;29;20836;-86
2022/10/28 11:42:18;;;;;;;26.93;9.90;;;;;;;25.66;97.69;101758.84;4828012;29;20537;-85
2022/10/28 11:44:51;;;;;;;30.53;9.20;;;;;;;25.76;96.06;101744.09;4842997;29;20496;-85
2022/10/28 11:47:24;;;;;;;28.73;9.13;;;;;;;25.78;95.30;101748.31;4842433;29;20524;-86
2022/10/28 11:50:01;;;;;;;27.07;8.60;;;;;;;25.77;95.45;101737.38;4844187;29;20460;-85
2022/10/28 11:52:50;;;;;;;30.73;9.33;;;;;;;25.95;96.45;101739.72;4844163;29;20527;-85
2022/10/28 11:55:23;;;;;;;34.70;9.30;;;;;;;26.04;95.15;101729.66;4843464;29;20491;-86
2022/10/28 11:58:10;;;;;;;35.07;9.47;;;;;;;26.10;94.20;101739.78;4842903;29;20486;-85
2022/10/28 12:01:03;;;;;;;30.03;9.23;;;;;;;26.14;94.10;101726.06;4843096;29;20459;-88
2022/10/28 12:11:18;;;;;;;20.47;6.97;;;;;;;26.52;91.63;101724.81;4843662;29;20926;-85
2022/10/28 12:14:31;;;;;;;39.90;9.60;;;;;;;26.46;91.72;101723.13;4842572;29;20460;-85
2022/10/28 12:17:11;;;;;;;34.77;9.03;;;;;;;26.39;92.90;101720.56;4828967;29;20448;-86
2022/10/28 12:20:04;;;;;;;32.00;9.00;;;;;;;26.42;92.80;101707.97;4841854;29;20453;-85
2022/10/28 12:22:33;;;;;;;42.97;9.53;;;;;;;26.48;91.98;101707.69;4839702;29;20537;-86
2022/10/28 12:25:07;;;;;;;31.60;9.03;;;;;;;26.34;91.87;101706.56;4842047;29;20583;-86
2022/10/28 12:27:36;;;;;;;33.90;8.73;;;;;;;26.31;92.73;101689.44;4842214;29;20487;-86
2022/10/28 12:30:43;;;;;;;22.07;7.57;;;;;;;26.31;91.80;101681.88;4826779;29;20453;-86
2022/10/28 12:33:17;;;;;;;20.33;7.43;;;;;;;26.41;92.09;101687.50;4842952;29;20519;-85
2022/10/28 12:35:52;;;;;;;34.70;8.07;;;;;;;26.54;92.26;101688.94;4842024;29;20444;-86
2022/10/28 12:38:46;;;;;;;27.53;8.40;;;;;;;26.63;91.33;101697.63;4842022;29;20542;-86